sensor_id;sensor_type;location;lat;lon;timestamp;P1;durP1;ratioP1;P2;durP2;ratioP2
20986;SDS011;10652;50.306;8.570;2023-12-07T00:00:15;11.10;;;8.48;;
20986;SDS011;10652;50.306;8.570;2023-12-07T00:04:18;11.25;;;8.38;;
20986;SDS011;10652;50.306;8.570;2023-12-07T00:08:20;10.23;;;8.32;;
20986;SDS011;10652;50.306;8.570;2023-12-07T00:12:22;10.02;;;8.10;;
20986;SDS011;10652;50.306;8.570;2023-12-07T00:16:25;16.60;;;9.90;;
20986;SDS011;10652;50.306;8.570;2023-12-07T00:20:27;9.88;;;8.13;;
20986;SDS011;10652;50.306;8.570;2023-12-07T00:24:29;18.48;;;10.07;;
20986;SDS011;10652;50.306;8.570;2023-12-07T00:28:32;13.85;;;9.65;;
20986;SDS011;10652;50.306;8.570;2023-12-07T00:32:34;28.13;;;12.75;;
20986;SDS011;10652;50.306;8.570;2023-12-07T00:36:36;67.03;;;20.55;;
20986;SDS011;10652;50.306;8.570;2023-12-07T00:40:38;20.08;;;12.52;;
20986;SDS011;10652;50.306;8.570;2023-12-07T00:44:42;13.55;;;9.82;;
20986;SDS011;10652;50.306;8.570;2023-12-07T00:48:44;14.05;;;10.75;;
20986;SDS011;10652;50.306;8.570;2023-12-07T00:52:46;11.85;;;9.45;;
20986;SDS011;10652;50.306;8.570;2023-12-07T00:56:48;14.32;;;9.77;;
20986;SDS011;10652;50.306;8.570;2023-12-07T01:00:50;14.60;;;10.65;;
20986;SDS011;10652;50.306;8.570;2023-12-07T01:04:53;15.07;;;10.75;;
20986;SDS011;10652;50.306;8.570;2023-12-07T01:08:55;11.45;;;10.02;;
20986;SDS011;10652;50.306;8.570;2023-12-07T01:12:57;14.38;;;10.18;;
20986;SDS011;10652;50.306;8.570;2023-12-07T01:16:59;12.50;;;9.68;;
20986;SDS011;10652;50.306;8.570;2023-12-07T01:21:01;10.77;;;8.85;;
20986;SDS011;10652;50.306;8.570;2023-12-07T01:25:03;11.85;;;8.32;;
20986;SDS011;10652;50.306;8.570;2023-12-07T01:29:07;10.30;;;7.68;;
20986;SDS011;10652;50.306;8.570;2023-12-07T01:33:10;10.15;;;6.63;;
20986;SDS011;10652;50.306;8.570;2023-12-07T01:37:12;7.15;;;5.30;;
20986;SDS011;10652;50.306;8.570;2023-12-07T01:41:14;7.20;;;5.28;;
20986;SDS011;10652;50.306;8.570;2023-12-07T01:45:16;10.20;;;4.90;;
20986;SDS011;10652;50.306;8.570;2023-12-07T01:49:19;8.95;;;5.57;;
20986;SDS011;10652;50.306;8.570;2023-12-07T01:53:21;11.65;;;5.53;;
20986;SDS011;10652;50.306;8.570;2023-12-07T01:57:25;8.10;;;4.88;;
20986;SDS011;10652;50.306;8.570;2023-12-07T02:01:27;8.18;;;5.15;;
20986;SDS011;10652;50.306;8.570;2023-12-07T02:05:29;8.00;;;5.40;;
20986;SDS011;10652;50.306;8.570;2023-12-07T02:09:33;6.88;;;5.55;;
20986;SDS011;10652;50.306;8.570;2023-12-07T02:13:39;10.18;;;6.10;;
20986;SDS011;10652;50.306;8.570;2023-12-07T02:21:59;8.38;;;6.65;;
20986;SDS011;10652;50.306;8.570;2023-12-07T02:26:04;8.52;;;6.10;;
20986;SDS011;10652;50.306;8.570;2023-12-07T02:30:09;9.10;;;6.35;;
20986;SDS011;10652;50.306;8.570;2023-12-07T02:34:12;8.60;;;6.40;;
20986;SDS011;10652;50.306;8.570;2023-12-07T02:38:14;9.35;;;6.80;;
20986;SDS011;10652;50.306;8.570;2023-12-07T02:42:18;9.75;;;6.47;;
20986;SDS011;10652;50.306;8.570;2023-12-07T02:46:23;10.35;;;6.57;;
20986;SDS011;10652;50.306;8.570;2023-12-07T02:50:26;7.95;;;6.95;;
20986;SDS011;10652;50.306;8.570;2023-12-07T02:54:28;8.98;;;6.10;;
20986;SDS011;10652;50.306;8.570;2023-12-07T02:58:30;8.98;;;6.45;;
20986;SDS011;10652;50.306;8.570;2023-12-07T03:02:33;11.30;;;7.18;;
20986;SDS011;10652;50.306;8.570;2023-12-07T03:06:39;9.07;;;7.35;;
20986;SDS011;10652;50.306;8.570;2023-12-07T03:10:41;9.95;;;6.68;;
20986;SDS011;10652;50.306;8.570;2023-12-07T03:14:43;8.38;;;5.97;;
20986;SDS011;10652;50.306;8.570;2023-12-07T03:18:45;11.13;;;6.50;;
20986;SDS011;10652;50.306;8.570;2023-12-07T03:22:47;8.35;;;5.90;;
20986;SDS011;10652;50.306;8.570;2023-12-07T03:26:50;6.10;;;5.45;;
20986;SDS011;10652;50.306;8.570;2023-12-07T03:30:52;7.15;;;5.88;;
20986;SDS011;10652;50.306;8.570;2023-12-07T03:34:54;8.73;;;6.00;;
20986;SDS011;10652;50.306;8.570;2023-12-07T03:38:56;10.52;;;6.63;;
20986;SDS011;10652;50.306;8.570;2023-12-07T03:42:58;8.48;;;6.25;;
20986;SDS011;10652;50.306;8.570;2023-12-07T03:47:01;10.40;;;6.30;;
20986;SDS011;10652;50.306;8.570;2023-12-07T03:51:03;8.38;;;6.10;;
20986;SDS011;10652;50.306;8.570;2023-12-07T03:55:06;9.05;;;7.05;;
20986;SDS011;10652;50.306;8.570;2023-12-07T03:59:09;12.40;;;6.65;;
20986;SDS011;10652;50.306;8.570;2023-12-07T04:03:11;8.95;;;6.40;;
20986;SDS011;10652;50.306;8.570;2023-12-07T04:07:13;8.25;;;5.30;;
20986;SDS011;10652;50.306;8.570;2023-12-07T04:11:16;6.75;;;5.43;;
20986;SDS011;10652;50.306;8.570;2023-12-07T04:15:18;8.18;;;5.60;;
20986;SDS011;10652;50.306;8.570;2023-12-07T04:19:21;9.30;;;5.70;;
20986;SDS011;10652;50.306;8.570;2023-12-07T04:23:24;9.90;;;6.75;;
20986;SDS011;10652;50.306;8.570;2023-12-07T04:27:26;9.50;;;6.22;;
20986;SDS011;10652;50.306;8.570;2023-12-07T04:31:29;10.27;;;6.28;;
20986;SDS011;10652;50.306;8.570;2023-12-07T04:35:31;7.78;;;5.80;;
20986;SDS011;10652;50.306;8.570;2023-12-07T04:39:33;12.07;;;5.95;;
20986;SDS011;10652;50.306;8.570;2023-12-07T04:43:35;8.80;;;7.10;;
20986;SDS011;10652;50.306;8.570;2023-12-07T04:47:37;31.73;;;20.75;;
20986;SDS011;10652;50.306;8.570;2023-12-07T04:51:39;9.25;;;7.00;;
20986;SDS011;10652;50.306;8.570;2023-12-07T04:55:43;10.90;;;5.93;;
20986;SDS011;10652;50.306;8.570;2023-12-07T04:59:50;9.45;;;6.18;;
20986;SDS011;10652;50.306;8.570;2023-12-07T05:03:52;22.80;;;13.45;;
20986;SDS011;10652;50.306;8.570;2023-12-07T05:07:54;11.32;;;7.50;;
20986;SDS011;10652;50.306;8.570;2023-12-07T05:11:56;7.53;;;5.35;;
20986;SDS011;10652;50.306;8.570;2023-12-07T05:15:59;10.75;;;5.65;;
20986;SDS011;10652;50.306;8.570;2023-12-07T05:20:01;7.93;;;5.88;;
20986;SDS011;10652;50.306;8.570;2023-12-07T05:24:04;9.65;;;5.40;;
20986;SDS011;10652;50.306;8.570;2023-12-07T05:28:06;8.82;;;5.72;;
20986;SDS011;10652;50.306;8.570;2023-12-07T05:32:09;9.13;;;6.55;;
20986;SDS011;10652;50.306;8.570;2023-12-07T05:36:11;8.80;;;6.30;;
20986;SDS011;10652;50.306;8.570;2023-12-07T05:40:14;8.18;;;5.80;;
20986;SDS011;10652;50.306;8.570;2023-12-07T05:44:16;7.32;;;5.93;;
20986;SDS011;10652;50.306;8.570;2023-12-07T05:48:23;9.38;;;5.28;;
20986;SDS011;10652;50.306;8.570;2023-12-07T05:52:26;7.28;;;5.35;;
20986;SDS011;10652;50.306;8.570;2023-12-07T05:56:28;8.63;;;6.85;;
20986;SDS011;10652;50.306;8.570;2023-12-07T06:00:30;8.15;;;6.28;;
20986;SDS011;10652;50.306;8.570;2023-12-07T06:04:33;7.50;;;5.90;;
20986;SDS011;10652;50.306;8.570;2023-12-07T06:08:35;8.80;;;6.10;;
20986;SDS011;10652;50.306;8.570;2023-12-07T06:12:38;9.25;;;7.22;;
20986;SDS011;10652;50.306;8.570;2023-12-07T06:16:40;9.48;;;7.30;;
20986;SDS011;10652;50.306;8.570;2023-12-07T06:20:42;9.73;;;7.55;;
20986;SDS011;10652;50.306;8.570;2023-12-07T06:24:44;9.43;;;7.20;;
20986;SDS011;10652;50.306;8.570;2023-12-07T06:28:47;7.68;;;6.75;;
20986;SDS011;10652;50.306;8.570;2023-12-07T06:32:49;12.52;;;7.82;;
20986;SDS011;10652;50.306;8.570;2023-12-07T06:36:51;9.68;;;7.20;;
20986;SDS011;10652;50.306;8.570;2023-12-07T06:40:53;9.15;;;7.50;;
20986;SDS011;10652;50.306;8.570;2023-12-07T06:44:56;8.68;;;6.72;;
20986;SDS011;10652;50.306;8.570;2023-12-07T06:48:58;9.32;;;7.00;;
20986;SDS011;10652;50.306;8.570;2023-12-07T06:53:00;9.80;;;6.95;;
20986;SDS011;10652;50.306;8.570;2023-12-07T06:57:02;10.75;;;7.68;;
20986;SDS011;10652;50.306;8.570;2023-12-07T07:01:04;7.60;;;6.80;;
20986;SDS011;10652;50.306;8.570;2023-12-07T07:05:07;12.27;;;7.57;;
20986;SDS011;10652;50.306;8.570;2023-12-07T07:09:09;11.25;;;7.55;;
20986;SDS011;10652;50.306;8.570;2023-12-07T07:13:12;9.35;;;6.70;;
20986;SDS011;10652;50.306;8.570;2023-12-07T07:17:16;10.52;;;7.80;;
20986;SDS011;10652;50.306;8.570;2023-12-07T07:21:19;9.60;;;7.50;;
20986;SDS011;10652;50.306;8.570;2023-12-07T07:25:21;12.88;;;8.25;;
20986;SDS011;10652;50.306;8.570;2023-12-07T07:29:23;13.18;;;8.52;;
20986;SDS011;10652;50.306;8.570;2023-12-07T07:33:28;30.33;;;16.42;;
20986;SDS011;10652;50.306;8.570;2023-12-07T07:37:30;96.82;;;34.92;;
20986;SDS011;10652;50.306;8.570;2023-12-07T07:41:32;109.75;;;44.58;;
20986;SDS011;10652;50.306;8.570;2023-12-07T07:45:34;17.90;;;10.57;;
20986;SDS011;10652;50.306;8.570;2023-12-07T07:49:36;11.38;;;7.45;;
20986;SDS011;10652;50.306;8.570;2023-12-07T07:53:39;10.07;;;6.88;;
20986;SDS011;10652;50.306;8.570;2023-12-07T07:57:41;11.18;;;6.47;;
20986;SDS011;10652;50.306;8.570;2023-12-07T08:01:45;9.27;;;7.55;;
20986;SDS011;10652;50.306;8.570;2023-12-07T08:05:49;9.35;;;7.70;;
20986;SDS011;10652;50.306;8.570;2023-12-07T08:09:51;8.75;;;6.85;;
20986;SDS011;10652;50.306;8.570;2023-12-07T08:13:53;26.08;;;16.23;;
20986;SDS011;10652;50.306;8.570;2023-12-07T08:17:55;29.85;;;19.00;;
20986;SDS011;10652;50.306;8.570;2023-12-07T08:21:58;36.55;;;22.48;;
20986;SDS011;10652;50.306;8.570;2023-12-07T08:26:00;14.68;;;10.65;;
20986;SDS011;10652;50.306;8.570;2023-12-07T08:30:03;9.25;;;7.50;;
20986;SDS011;10652;50.306;8.570;2023-12-07T08:34:06;11.43;;;8.07;;
20986;SDS011;10652;50.306;8.570;2023-12-07T08:38:08;9.00;;;7.68;;
20986;SDS011;10652;50.306;8.570;2023-12-07T08:42:10;10.02;;;7.00;;
20986;SDS011;10652;50.306;8.570;2023-12-07T08:46:13;11.25;;;7.10;;
20986;SDS011;10652;50.306;8.570;2023-12-07T08:50:15;11.65;;;8.40;;
20986;SDS011;10652;50.306;8.570;2023-12-07T08:54:17;12.57;;;8.88;;
20986;SDS011;10652;50.306;8.570;2023-12-07T08:58:19;12.52;;;7.95;;
20986;SDS011;10652;50.306;8.570;2023-12-07T09:02:22;13.18;;;9.25;;
20986;SDS011;10652;50.306;8.570;2023-12-07T09:06:42;13.93;;;10.80;;
20986;SDS011;10652;50.306;8.570;2023-12-07T09:10:45;15.05;;;10.45;;
20986;SDS011;10652;50.306;8.570;2023-12-07T09:14:47;15.45;;;10.48;;
20986;SDS011;10652;50.306;8.570;2023-12-07T09:18:49;14.77;;;9.68;;
20986;SDS011;10652;50.306;8.570;2023-12-07T09:22:52;14.93;;;10.13;;
20986;SDS011;10652;50.306;8.570;2023-12-07T09:26:56;11.93;;;8.10;;
20986;SDS011;10652;50.306;8.570;2023-12-07T09:30:58;11.13;;;6.78;;
20986;SDS011;10652;50.306;8.570;2023-12-07T09:35:01;9.82;;;7.72;;
20986;SDS011;10652;50.306;8.570;2023-12-07T09:39:03;12.30;;;9.10;;
20986;SDS011;10652;50.306;8.570;2023-12-07T09:43:05;14.95;;;9.60;;
20986;SDS011;10652;50.306;8.570;2023-12-07T09:47:08;14.02;;;9.77;;
20986;SDS011;10652;50.306;8.570;2023-12-07T09:51:10;12.63;;;9.15;;
20986;SDS011;10652;50.306;8.570;2023-12-07T09:55:13;11.88;;;9.68;;
20986;SDS011;10652;50.306;8.570;2023-12-07T09:59:17;9.90;;;7.50;;
20986;SDS011;10652;50.306;8.570;2023-12-07T10:03:20;11.40;;;7.93;;
20986;SDS011;10652;50.306;8.570;2023-12-07T10:07:31;9.98;;;8.05;;
20986;SDS011;10652;50.306;8.570;2023-12-07T10:11:35;12.00;;;7.97;;
20986;SDS011;10652;50.306;8.570;2023-12-07T10:15:37;10.75;;;7.85;;
20986;SDS011;10652;50.306;8.570;2023-12-07T10:19:40;11.73;;;8.27;;
20986;SDS011;10652;50.306;8.570;2023-12-07T10:23:42;10.10;;;7.88;;
20986;SDS011;10652;50.306;8.570;2023-12-07T10:27:50;11.15;;;7.60;;
20986;SDS011;10652;50.306;8.570;2023-12-07T10:31:59;10.93;;;7.82;;
20986;SDS011;10652;50.306;8.570;2023-12-07T10:36:02;9.48;;;6.60;;
20986;SDS011;10652;50.306;8.570;2023-12-07T10:40:05;9.20;;;7.05;;
20986;SDS011;10652;50.306;8.570;2023-12-07T10:44:07;8.45;;;6.35;;
20986;SDS011;10652;50.306;8.570;2023-12-07T10:48:13;8.80;;;6.45;;
20986;SDS011;10652;50.306;8.570;2023-12-07T10:52:16;7.13;;;5.97;;
20986;SDS011;10652;50.306;8.570;2023-12-07T11:00:52;10.02;;;7.43;;
20986;SDS011;10652;50.306;8.570;2023-12-07T11:04:55;8.85;;;6.90;;
20986;SDS011;10652;50.306;8.570;2023-12-07T11:08:59;12.05;;;7.57;;
20986;SDS011;10652;50.306;8.570;2023-12-07T11:13:09;11.68;;;7.90;;
20986;SDS011;10652;50.306;8.570;2023-12-07T11:17:20;11.57;;;8.02;;
20986;SDS011;10652;50.306;8.570;2023-12-07T11:21:24;13.18;;;8.38;;
20986;SDS011;10652;50.306;8.570;2023-12-07T11:25:26;14.30;;;8.77;;
20986;SDS011;10652;50.306;8.570;2023-12-07T11:29:28;14.88;;;8.45;;
20986;SDS011;10652;50.306;8.570;2023-12-07T11:33:31;12.18;;;7.93;;
20986;SDS011;10652;50.306;8.570;2023-12-07T11:42:16;12.30;;;8.52;;
20986;SDS011;10652;50.306;8.570;2023-12-07T11:46:19;11.80;;;8.60;;
20986;SDS011;10652;50.306;8.570;2023-12-07T11:50:22;14.15;;;9.82;;
20986;SDS011;10652;50.306;8.570;2023-12-07T11:54:24;13.80;;;9.85;;
20986;SDS011;10652;50.306;8.570;2023-12-07T11:58:28;13.05;;;9.23;;
20986;SDS011;10652;50.306;8.570;2023-12-07T12:02:33;13.70;;;9.60;;
20986;SDS011;10652;50.306;8.570;2023-12-07T12:06:38;13.55;;;10.10;;
20986;SDS011;10652;50.306;8.570;2023-12-07T12:10:40;13.50;;;10.27;;
20986;SDS011;10652;50.306;8.570;2023-12-07T12:14:44;16.30;;;12.25;;
20986;SDS011;10652;50.306;8.570;2023-12-07T12:18:46;19.45;;;13.10;;
20986;SDS011;10652;50.306;8.570;2023-12-07T12:22:50;17.88;;;13.65;;
20986;SDS011;10652;50.306;8.570;2023-12-07T12:26:55;21.35;;;14.88;;
20986;SDS011;10652;50.306;8.570;2023-12-07T12:30:58;21.35;;;13.50;;
20986;SDS011;10652;50.306;8.570;2023-12-07T12:35:01;21.88;;;15.38;;
20986;SDS011;10652;50.306;8.570;2023-12-07T12:39:03;23.50;;;16.02;;
20986;SDS011;10652;50.306;8.570;2023-12-07T12:43:21;23.00;;;15.23;;
20986;SDS011;10652;50.306;8.570;2023-12-07T12:47:26;23.25;;;15.45;;
20986;SDS011;10652;50.306;8.570;2023-12-07T12:51:29;21.83;;;14.43;;
20986;SDS011;10652;50.306;8.570;2023-12-07T12:55:37;24.27;;;16.33;;
20986;SDS011;10652;50.306;8.570;2023-12-07T12:59:40;23.45;;;15.82;;
20986;SDS011;10652;50.306;8.570;2023-12-07T13:03:42;24.88;;;16.10;;
20986;SDS011;10652;50.306;8.570;2023-12-07T13:07:47;21.50;;;15.32;;
20986;SDS011;10652;50.306;8.570;2023-12-07T13:12:06;21.95;;;15.05;;
20986;SDS011;10652;50.306;8.570;2023-12-07T13:16:08;26.67;;;16.00;;
20986;SDS011;10652;50.306;8.570;2023-12-07T13:20:11;21.65;;;14.77;;
20986;SDS011;10652;50.306;8.570;2023-12-07T13:24:15;24.30;;;16.40;;
20986;SDS011;10652;50.306;8.570;2023-12-07T13:28:17;24.58;;;17.15;;
20986;SDS011;10652;50.306;8.570;2023-12-07T13:32:19;28.55;;;18.67;;
20986;SDS011;10652;50.306;8.570;2023-12-07T13:36:21;27.02;;;18.25;;
20986;SDS011;10652;50.306;8.570;2023-12-07T13:40:26;28.92;;;19.05;;
20986;SDS011;10652;50.306;8.570;2023-12-07T13:44:29;27.83;;;17.70;;
20986;SDS011;10652;50.306;8.570;2023-12-07T13:48:31;26.40;;;18.25;;
20986;SDS011;10652;50.306;8.570;2023-12-07T13:52:33;27.17;;;18.95;;
20986;SDS011;10652;50.306;8.570;2023-12-07T13:56:35;30.10;;;19.42;;
20986;SDS011;10652;50.306;8.570;2023-12-07T14:00:37;29.38;;;20.02;;
20986;SDS011;10652;50.306;8.570;2023-12-07T14:04:40;32.47;;;20.40;;
20986;SDS011;10652;50.306;8.570;2023-12-07T14:08:42;30.35;;;20.33;;
20986;SDS011;10652;50.306;8.570;2023-12-07T14:12:44;35.92;;;22.52;;
20986;SDS011;10652;50.306;8.570;2023-12-07T14:16:46;30.58;;;20.05;;
20986;SDS011;10652;50.306;8.570;2023-12-07T14:21:08;32.42;;;19.73;;
20986;SDS011;10652;50.306;8.570;2023-12-07T14:25:28;29.55;;;19.55;;
20986;SDS011;10652;50.306;8.570;2023-12-07T14:29:30;35.00;;;24.17;;
20986;SDS011;10652;50.306;8.570;2023-12-07T14:33:34;32.13;;;21.73;;
20986;SDS011;10652;50.306;8.570;2023-12-07T14:37:38;28.52;;;18.50;;
20986;SDS011;10652;50.306;8.570;2023-12-07T14:41:40;29.95;;;19.98;;
20986;SDS011;10652;50.306;8.570;2023-12-07T14:45:43;31.92;;;20.10;;
20986;SDS011;10652;50.306;8.570;2023-12-07T14:49:45;28.75;;;19.48;;
20986;SDS011;10652;50.306;8.570;2023-12-07T14:53:47;26.70;;;16.75;;
20986;SDS011;10652;50.306;8.570;2023-12-07T14:57:49;26.70;;;16.95;;
20986;SDS011;10652;50.306;8.570;2023-12-07T15:01:53;27.98;;;17.10;;
20986;SDS011;10652;50.306;8.570;2023-12-07T15:05:55;27.60;;;17.33;;
20986;SDS011;10652;50.306;8.570;2023-12-07T15:09:57;30.20;;;17.92;;
20986;SDS011;10652;50.306;8.570;2023-12-07T15:14:00;27.65;;;18.75;;
20986;SDS011;10652;50.306;8.570;2023-12-07T15:18:03;24.58;;;16.25;;
20986;SDS011;10652;50.306;8.570;2023-12-07T15:22:05;25.67;;;16.45;;
20986;SDS011;10652;50.306;8.570;2023-12-07T15:26:08;22.67;;;15.55;;
20986;SDS011;10652;50.306;8.570;2023-12-07T15:30:11;23.80;;;16.58;;
20986;SDS011;10652;50.306;8.570;2023-12-07T15:34:14;27.10;;;16.02;;
20986;SDS011;10652;50.306;8.570;2023-12-07T15:38:30;24.13;;;16.35;;
20986;SDS011;10652;50.306;8.570;2023-12-07T15:42:32;24.52;;;15.68;;
20986;SDS011;10652;50.306;8.570;2023-12-07T15:46:34;28.83;;;17.40;;
20986;SDS011;10652;50.306;8.570;2023-12-07T15:50:37;24.95;;;16.48;;
20986;SDS011;10652;50.306;8.570;2023-12-07T15:54:39;28.92;;;18.55;;
20986;SDS011;10652;50.306;8.570;2023-12-07T15:58:42;25.10;;;16.98;;
20986;SDS011;10652;50.306;8.570;2023-12-07T16:02:45;30.48;;;18.30;;
20986;SDS011;10652;50.306;8.570;2023-12-07T16:06:47;34.42;;;18.48;;
20986;SDS011;10652;50.306;8.570;2023-12-07T16:10:49;48.83;;;20.10;;
20986;SDS011;10652;50.306;8.570;2023-12-07T16:14:51;42.53;;;19.83;;
20986;SDS011;10652;50.306;8.570;2023-12-07T16:18:58;38.17;;;23.20;;
20986;SDS011;10652;50.306;8.570;2023-12-07T16:23:01;23.50;;;14.80;;
20986;SDS011;10652;50.306;8.570;2023-12-07T16:27:04;18.33;;;12.98;;
20986;SDS011;10652;50.306;8.570;2023-12-07T16:31:09;45.58;;;12.38;;
20986;SDS011;10652;50.306;8.570;2023-12-07T16:35:12;115.32;;;13.95;;
20986;SDS011;10652;50.306;8.570;2023-12-07T16:39:14;155.80;;;13.63;;
20986;SDS011;10652;50.306;8.570;2023-12-07T16:43:16;46.75;;;12.07;;
20986;SDS011;10652;50.306;8.570;2023-12-07T16:47:18;45.75;;;12.70;;
20986;SDS011;10652;50.306;8.570;2023-12-07T16:51:20;55.15;;;11.73;;
20986;SDS011;10652;50.306;8.570;2023-12-07T16:55:23;30.40;;;12.60;;
20986;SDS011;10652;50.306;8.570;2023-12-07T16:59:25;17.33;;;11.63;;
20986;SDS011;10652;50.306;8.570;2023-12-07T17:03:27;26.85;;;10.38;;
20986;SDS011;10652;50.306;8.570;2023-12-07T17:07:29;14.45;;;11.30;;
20986;SDS011;10652;50.306;8.570;2023-12-07T17:11:31;15.63;;;11.27;;
20986;SDS011;10652;50.306;8.570;2023-12-07T17:15:33;14.98;;;11.80;;
20986;SDS011;10652;50.306;8.570;2023-12-07T17:19:35;14.98;;;10.80;;
20986;SDS011;10652;50.306;8.570;2023-12-07T17:23:49;18.35;;;13.00;;
20986;SDS011;10652;50.306;8.570;2023-12-07T17:27:51;18.92;;;13.32;;
20986;SDS011;10652;50.306;8.570;2023-12-07T17:31:57;11.85;;;9.98;;
20986;SDS011;10652;50.306;8.570;2023-12-07T17:36:00;13.82;;;9.95;;
20986;SDS011;10652;50.306;8.570;2023-12-07T17:40:02;12.68;;;9.23;;
20986;SDS011;10652;50.306;8.570;2023-12-07T17:44:05;11.18;;;8.93;;
20986;SDS011;10652;50.306;8.570;2023-12-07T17:48:07;10.70;;;7.80;;
20986;SDS011;10652;50.306;8.570;2023-12-07T17:52:13;10.43;;;9.13;;
20986;SDS011;10652;50.306;8.570;2023-12-07T17:56:15;12.80;;;9.82;;
20986;SDS011;10652;50.306;8.570;2023-12-07T18:00:17;11.70;;;9.38;;
20986;SDS011;10652;50.306;8.570;2023-12-07T18:04:20;13.18;;;10.85;;
20986;SDS011;10652;50.306;8.570;2023-12-07T18:08:22;11.80;;;10.07;;
20986;SDS011;10652;50.306;8.570;2023-12-07T18:12:24;10.82;;;8.88;;
20986;SDS011;10652;50.306;8.570;2023-12-07T18:16:26;10.35;;;8.57;;
20986;SDS011;10652;50.306;8.570;2023-12-07T18:20:28;10.02;;;8.48;;
20986;SDS011;10652;50.306;8.570;2023-12-07T18:24:30;12.43;;;9.45;;
20986;SDS011;10652;50.306;8.570;2023-12-07T18:28:32;10.27;;;8.75;;
20986;SDS011;10652;50.306;8.570;2023-12-07T18:32:35;13.82;;;9.55;;
20986;SDS011;10652;50.306;8.570;2023-12-07T18:36:37;10.85;;;8.38;;
20986;SDS011;10652;50.306;8.570;2023-12-07T18:40:39;10.25;;;7.97;;
20986;SDS011;10652;50.306;8.570;2023-12-07T18:44:44;9.82;;;7.97;;
20986;SDS011;10652;50.306;8.570;2023-12-07T18:48:46;9.68;;;7.68;;
20986;SDS011;10652;50.306;8.570;2023-12-07T18:52:48;9.85;;;7.68;;
20986;SDS011;10652;50.306;8.570;2023-12-07T18:56:50;9.82;;;7.95;;
20986;SDS011;10652;50.306;8.570;2023-12-07T19:00:52;10.95;;;8.50;;
20986;SDS011;10652;50.306;8.570;2023-12-07T19:04:55;11.48;;;8.70;;
20986;SDS011;10652;50.306;8.570;2023-12-07T19:08:57;13.43;;;9.48;;
20986;SDS011;10652;50.306;8.570;2023-12-07T19:12:59;12.90;;;9.18;;
20986;SDS011;10652;50.306;8.570;2023-12-07T19:17:03;10.45;;;8.68;;
20986;SDS011;10652;50.306;8.570;2023-12-07T19:21:06;11.20;;;7.45;;
20986;SDS011;10652;50.306;8.570;2023-12-07T19:25:08;13.20;;;9.32;;
20986;SDS011;10652;50.306;8.570;2023-12-07T19:29:11;13.85;;;10.23;;
20986;SDS011;10652;50.306;8.570;2023-12-07T19:33:15;12.82;;;9.88;;
20986;SDS011;10652;50.306;8.570;2023-12-07T19:37:17;16.08;;;11.43;;
20986;SDS011;10652;50.306;8.570;2023-12-07T19:41:19;13.85;;;10.43;;
20986;SDS011;10652;50.306;8.570;2023-12-07T19:45:21;19.00;;;11.70;;
20986;SDS011;10652;50.306;8.570;2023-12-07T19:49:23;17.13;;;12.60;;
20986;SDS011;10652;50.306;8.570;2023-12-07T19:53:25;16.38;;;12.30;;
20986;SDS011;10652;50.306;8.570;2023-12-07T19:57:27;18.88;;;12.23;;
20986;SDS011;10652;50.306;8.570;2023-12-07T20:01:30;18.38;;;14.00;;
20986;SDS011;10652;50.306;8.570;2023-12-07T20:05:32;18.90;;;12.95;;
20986;SDS011;10652;50.306;8.570;2023-12-07T20:09:35;19.20;;;13.10;;
20986;SDS011;10652;50.306;8.570;2023-12-07T20:13:37;18.98;;;12.93;;
20986;SDS011;10652;50.306;8.570;2023-12-07T20:17:39;17.23;;;11.93;;
20986;SDS011;10652;50.306;8.570;2023-12-07T20:21:42;19.23;;;12.40;;
20986;SDS011;10652;50.306;8.570;2023-12-07T20:25:44;17.35;;;11.80;;
20986;SDS011;10652;50.306;8.570;2023-12-07T20:29:46;18.48;;;12.75;;
20986;SDS011;10652;50.306;8.570;2023-12-07T20:33:48;24.23;;;15.02;;
20986;SDS011;10652;50.306;8.570;2023-12-07T20:37:51;19.80;;;13.32;;
20986;SDS011;10652;50.306;8.570;2023-12-07T20:41:53;19.50;;;13.35;;
20986;SDS011;10652;50.306;8.570;2023-12-07T20:45:55;18.25;;;12.18;;
20986;SDS011;10652;50.306;8.570;2023-12-07T20:49:57;20.38;;;12.90;;
20986;SDS011;10652;50.306;8.570;2023-12-07T20:54:00;19.23;;;12.68;;
20986;SDS011;10652;50.306;8.570;2023-12-07T20:58:03;20.50;;;13.63;;
20986;SDS011;10652;50.306;8.570;2023-12-07T21:02:05;22.40;;;13.98;;
20986;SDS011;10652;50.306;8.570;2023-12-07T21:06:07;19.83;;;13.18;;
20986;SDS011;10652;50.306;8.570;2023-12-07T21:10:27;19.77;;;13.13;;
20986;SDS011;10652;50.306;8.570;2023-12-07T21:14:29;20.35;;;14.10;;
20986;SDS011;10652;50.306;8.570;2023-12-07T21:18:31;20.52;;;14.35;;
20986;SDS011;10652;50.306;8.570;2023-12-07T21:22:33;20.92;;;13.90;;
20986;SDS011;10652;50.306;8.570;2023-12-07T21:26:35;20.20;;;12.70;;
20986;SDS011;10652;50.306;8.570;2023-12-07T21:30:37;18.63;;;12.93;;
20986;SDS011;10652;50.306;8.570;2023-12-07T21:34:42;20.35;;;13.13;;
20986;SDS011;10652;50.306;8.570;2023-12-07T21:38:44;21.60;;;12.27;;
20986;SDS011;10652;50.306;8.570;2023-12-07T21:42:47;17.20;;;11.60;;
20986;SDS011;10652;50.306;8.570;2023-12-07T21:46:49;16.60;;;11.95;;
20986;SDS011;10652;50.306;8.570;2023-12-07T21:50:51;18.25;;;12.43;;
20986;SDS011;10652;50.306;8.570;2023-12-07T21:54:53;17.70;;;12.18;;
20986;SDS011;10652;50.306;8.570;2023-12-07T21:58:55;17.55;;;11.73;;
20986;SDS011;10652;50.306;8.570;2023-12-07T22:02:57;18.17;;;11.95;;
20986;SDS011;10652;50.306;8.570;2023-12-07T22:07:00;16.35;;;11.23;;
20986;SDS011;10652;50.306;8.570;2023-12-07T22:11:02;17.35;;;12.05;;
20986;SDS011;10652;50.306;8.570;2023-12-07T22:15:04;18.48;;;12.35;;
20986;SDS011;10652;50.306;8.570;2023-12-07T22:19:07;18.02;;;12.27;;
20986;SDS011;10652;50.306;8.570;2023-12-07T22:23:09;17.73;;;11.65;;
20986;SDS011;10652;50.306;8.570;2023-12-07T22:27:11;18.73;;;12.32;;
20986;SDS011;10652;50.306;8.570;2023-12-07T22:31:15;16.90;;;11.73;;
20986;SDS011;10652;50.306;8.570;2023-12-07T22:35:17;16.85;;;11.50;;
20986;SDS011;10652;50.306;8.570;2023-12-07T22:39:19;14.90;;;11.68;;
20986;SDS011;10652;50.306;8.570;2023-12-07T22:43:21;18.15;;;11.52;;
20986;SDS011;10652;50.306;8.570;2023-12-07T22:47:23;17.08;;;11.95;;
20986;SDS011;10652;50.306;8.570;2023-12-07T22:51:26;16.55;;;11.82;;
20986;SDS011;10652;50.306;8.570;2023-12-07T22:55:28;16.38;;;10.88;;
20986;SDS011;10652;50.306;8.570;2023-12-07T22:59:30;16.10;;;11.57;;
20986;SDS011;10652;50.306;8.570;2023-12-07T23:03:34;17.38;;;11.48;;
20986;SDS011;10652;50.306;8.570;2023-12-07T23:07:37;16.20;;;11.55;;
20986;SDS011;10652;50.306;8.570;2023-12-07T23:11:39;17.38;;;11.52;;
20986;SDS011;10652;50.306;8.570;2023-12-07T23:15:41;17.45;;;12.07;;
20986;SDS011;10652;50.306;8.570;2023-12-07T23:19:43;15.43;;;11.60;;
20986;SDS011;10652;50.306;8.570;2023-12-07T23:23:46;13.88;;;10.38;;
20986;SDS011;10652;50.306;8.570;2023-12-07T23:27:48;15.25;;;11.00;;
20986;SDS011;10652;50.306;8.570;2023-12-07T23:31:50;18.15;;;11.95;;
20986;SDS011;10652;50.306;8.570;2023-12-07T23:35:52;17.55;;;11.60;;
20986;SDS011;10652;50.306;8.570;2023-12-07T23:39:54;15.73;;;11.55;;
20986;SDS011;10652;50.306;8.570;2023-12-07T23:43:56;16.05;;;10.63;;
20986;SDS011;10652;50.306;8.570;2023-12-07T23:47:58;14.68;;;9.88;;
20986;SDS011;10652;50.306;8.570;2023-12-07T23:52:01;13.93;;;10.70;;
20986;SDS011;10652;50.306;8.570;2023-12-07T23:56:03;17.00;;;11.40;;
